createdAt,value
2018-09-30T00:00:04.497Z,0
2018-09-30T00:01:05.471Z,0
2018-09-30T00:02:06.427Z,0
2018-09-30T00:03:07.129Z,0
2018-09-30T00:04:08.652Z,0
2018-09-30T00:05:09.365Z,0
2018-09-30T00:06:10.088Z,0
2018-09-30T00:07:10.804Z,0
2018-09-30T00:08:11.838Z,0
2018-09-30T00:09:12.687Z,0
2018-09-30T00:10:13.659Z,0
2018-09-30T00:11:14.389Z,0
2018-09-30T00:12:15.098Z,0
2018-09-30T00:13:15.836Z,0
2018-09-30T00:14:16.612Z,0
2018-09-30T00:15:17.568Z,0
2018-09-30T00:16:18.273Z,0
2018-09-30T00:17:18.996Z,0
2018-09-30T00:18:20.701Z,0
2018-09-30T00:19:21.437Z,0
2018-09-30T00:20:22.433Z,0
2018-09-30T00:21:23.203Z,0
2018-09-30T00:22:23.931Z,0
2018-09-30T00:23:24.656Z,0
2018-09-30T00:24:25.388Z,0
2018-09-30T00:25:26.110Z,0
2018-09-30T00:26:27.077Z,0
2018-09-30T00:27:27.866Z,0
2018-09-30T00:28:28.599Z,0
2018-09-30T00:29:29.309Z,0
2018-09-30T00:30:30.052Z,0
2018-09-30T00:31:31.277Z,0
2018-09-30T00:32:31.982Z,0
2018-09-30T00:33:32.696Z,0
2018-09-30T00:34:33.420Z,0
2018-09-30T00:35:34.200Z,0
2018-09-30T00:36:35.204Z,0
2018-09-30T00:37:35.923Z,0
2018-09-30T00:38:36.638Z,0
2018-09-30T00:39:37.348Z,0
2018-09-30T00:40:38.384Z,0
2018-09-30T00:41:39.120Z,0
2018-09-30T00:42:39.840Z,0
2018-09-30T00:43:40.577Z,0
2018-09-30T00:44:41.331Z,0
2018-09-30T00:45:42.036Z,0
2018-09-30T00:46:42.781Z,0
2018-09-30T00:47:43.740Z,0
2018-09-30T00:48:44.450Z,0
2018-09-30T00:49:45.168Z,0
2018-09-30T00:52:01.367Z,0
2018-09-30T00:53:02.114Z,0
2018-09-30T00:54:02.823Z,0
2018-09-30T00:55:03.896Z,0
2018-09-30T00:56:04.696Z,0
2018-09-30T00:57:05.478Z,0
2018-09-30T00:58:06.192Z,0
2018-09-30T00:59:06.917Z,0
2018-09-30T01:00:07.627Z,0
2018-09-30T01:01:08.339Z,0
2018-09-30T01:02:09.051Z,0
2018-09-30T01:03:10.029Z,0
2018-09-30T01:04:10.751Z,0
2018-09-30T01:05:11.749Z,0
2018-09-30T01:06:12.453Z,0
2018-09-30T01:07:13.224Z,0
2018-09-30T01:08:13.948Z,0
2018-09-30T01:09:14.684Z,0
2018-09-30T01:10:15.408Z,0
2018-09-30T01:11:16.132Z,0
2018-09-30T01:12:16.900Z,0
2018-09-30T01:13:17.642Z,0
2018-09-30T01:14:18.361Z,0
2018-09-30T01:15:19.079Z,0
2018-09-30T01:16:19.788Z,0
2018-09-30T01:17:20.517Z,0
2018-09-30T01:18:21.495Z,0
2018-09-30T01:20:04.953Z,0
2018-09-30T01:21:05.677Z,0
2018-09-30T01:22:06.382Z,0
2018-09-30T01:23:07.106Z,0
2018-09-30T01:24:08.084Z,0
2018-09-30T01:25:09.061Z,0
2018-09-30T01:26:09.765Z,0
2018-09-30T01:27:10.479Z,0
2018-09-30T01:28:11.482Z,0
2018-09-30T01:29:12.448Z,0
2018-09-30T01:30:13.159Z,0
2018-09-30T01:31:14.138Z,0
2018-09-30T01:32:15.117Z,0
2018-09-30T01:33:15.914Z,0
2018-09-30T01:34:16.880Z,0
2018-09-30T01:35:17.619Z,0
2018-09-30T01:36:18.350Z,0
2018-09-30T01:37:19.070Z,0
2018-09-30T01:38:19.805Z,0
2018-09-30T01:39:20.519Z,0
2018-09-30T01:40:21.510Z,0
2018-09-30T01:41:22.222Z,0
2018-09-30T01:42:22.954Z,0
2018-09-30T01:43:23.663Z,0
2018-09-30T01:44:24.632Z,0
2018-09-30T01:45:25.354Z,0
2018-09-30T01:46:26.096Z,0
2018-09-30T01:47:26.836Z,0
2018-09-30T01:48:27.548Z,0
2018-09-30T01:49:28.519Z,0
2018-09-30T01:50:29.258Z,0
2018-09-30T01:51:30.231Z,0
2018-09-30T01:52:30.949Z,0
2018-09-30T01:53:31.683Z,0
2018-09-30T01:54:32.452Z,0
2018-09-30T01:55:33.189Z,0
2018-09-30T01:56:33.907Z,0
2018-09-30T01:57:34.881Z,0
2018-09-30T01:58:35.904Z,0
2018-09-30T01:59:36.616Z,0
2018-09-30T02:00:37.321Z,0
2018-09-30T02:01:38.045Z,0
2018-09-30T02:02:38.780Z,0
2018-09-30T02:03:39.493Z,0
2018-09-30T02:04:40.233Z,0
2018-09-30T02:05:40.956Z,0
2018-09-30T02:06:41.676Z,0
2018-09-30T02:07:42.454Z,0
2018-09-30T02:08:43.184Z,0
2018-09-30T02:09:43.906Z,0
2018-09-30T02:10:44.618Z,0
2018-09-30T02:11:45.598Z,0
2018-09-30T02:12:46.308Z,0
2018-09-30T02:13:47.037Z,0
2018-09-30T02:14:47.812Z,0
2018-09-30T02:15:48.518Z,0
2018-09-30T02:16:49.236Z,0
2018-09-30T02:17:49.946Z,0
2018-09-30T02:18:50.664Z,0
2018-09-30T02:19:51.693Z,0
2018-09-30T02:20:52.684Z,0
2018-09-30T02:21:53.395Z,0
2018-09-30T02:22:54.141Z,0
2018-09-30T02:23:54.856Z,0
2018-09-30T02:24:55.601Z,0
2018-09-30T02:25:56.310Z,0
2018-09-30T02:26:57.297Z,0
2018-09-30T02:27:58.022Z,0
2018-09-30T02:28:58.743Z,0
2018-09-30T02:29:59.756Z,0
2018-09-30T02:31:00.503Z,0
2018-09-30T02:32:01.473Z,0
2018-09-30T02:33:02.192Z,0
2018-09-30T02:34:02.919Z,0
2018-09-30T02:35:03.644Z,0
2018-09-30T02:36:04.393Z,0
2018-09-30T02:37:05.106Z,0
2018-09-30T02:38:06.101Z,0
2018-09-30T02:39:07.093Z,0
2018-09-30T02:40:07.847Z,0
2018-09-30T02:41:08.563Z,0
2018-09-30T02:42:09.277Z,0
2018-09-30T02:43:10.272Z,0
2018-09-30T02:44:10.994Z,0
2018-09-30T02:45:11.716Z,0
2018-09-30T02:46:12.506Z,0
2018-09-30T02:47:13.294Z,0
2018-09-30T02:48:14.273Z,0
2018-09-30T02:49:15.011Z,0
2018-09-30T02:50:16.288Z,0
2018-09-30T02:51:17.078Z,0
2018-09-30T02:52:17.808Z,0
2018-09-30T02:53:18.537Z,0
2018-09-30T02:54:19.274Z,0
2018-09-30T02:55:19.990Z,0
2018-09-30T02:56:20.970Z,0
2018-09-30T02:58:08.415Z,0
2018-09-30T02:59:09.138Z,0
2018-09-30T03:00:09.847Z,0
2018-09-30T03:01:10.578Z,0
2018-09-30T03:02:11.287Z,0
2018-09-30T03:03:12.263Z,0
2018-09-30T03:04:13.043Z,0
2018-09-30T03:05:13.760Z,0
2018-09-30T03:06:14.465Z,0
2018-09-30T03:07:15.175Z,0
2018-09-30T03:08:15.951Z,0
2018-09-30T03:09:16.706Z,0
2018-09-30T03:10:17.419Z,0
2018-09-30T03:11:18.655Z,0
2018-09-30T03:12:19.376Z,0
2018-09-30T03:13:20.145Z,0
2018-09-30T03:14:20.873Z,0
2018-09-30T03:15:21.581Z,0
2018-09-30T03:16:22.316Z,0
2018-09-30T03:17:23.075Z,0
2018-09-30T03:18:23.798Z,0
2018-09-30T03:19:24.515Z,0
2018-09-30T03:20:25.240Z,0
2018-09-30T03:21:26.222Z,0
2018-09-30T03:22:26.918Z,0
2018-09-30T03:23:27.634Z,0
2018-09-30T03:24:28.361Z,0
2018-09-30T03:25:29.095Z,0
2018-09-30T03:26:29.821Z,0
2018-09-30T03:27:30.806Z,0
2018-09-30T03:28:31.530Z,0
2018-09-30T03:29:32.320Z,0
2018-09-30T03:30:33.034Z,0
2018-09-30T03:31:33.782Z,0
2018-09-30T03:32:34.506Z,0
2018-09-30T03:33:35.224Z,0
2018-09-30T03:34:35.995Z,0
2018-09-30T03:35:36.711Z,0
2018-09-30T03:36:37.439Z,0
2018-09-30T03:37:38.204Z,0
2018-09-30T03:38:38.908Z,0
2018-09-30T03:39:39.662Z,0
2018-09-30T03:40:40.320Z,0
2018-09-30T03:41:41.305Z,0
2018-09-30T03:42:42.007Z,0
2018-09-30T03:43:42.744Z,0
2018-09-30T03:44:43.455Z,0
2018-09-30T03:45:44.227Z,0
2018-09-30T03:46:44.946Z,0
2018-09-30T03:47:45.669Z,0
2018-09-30T03:48:46.417Z,0
2018-09-30T03:49:47.144Z,0
2018-09-30T03:50:47.893Z,0
2018-09-30T03:51:48.608Z,0
2018-09-30T03:52:49.325Z,0
2018-09-30T03:53:50.066Z,0
2018-09-30T03:54:51.049Z,0
2018-09-30T03:55:51.768Z,0
2018-09-30T03:56:52.491Z,0
2018-09-30T03:57:53.226Z,0
2018-09-30T03:58:53.935Z,0
2018-09-30T03:59:54.729Z,0
2018-09-30T04:00:55.519Z,0
2018-09-30T04:01:56.262Z,0
2018-09-30T04:02:56.985Z,0
2018-09-30T04:03:57.730Z,0
2018-09-30T04:04:58.452Z,0
2018-09-30T04:05:59.169Z,0
2018-09-30T04:06:59.894Z,0
2018-09-30T04:08:00.616Z,0
2018-09-30T04:09:01.589Z,0
2018-09-30T04:10:02.354Z,0
2018-09-30T04:11:03.062Z,0
2018-09-30T04:12:03.776Z,0
2018-09-30T04:13:04.492Z,0
2018-09-30T04:14:05.465Z,0
2018-09-30T04:15:06.690Z,0
2018-09-30T04:16:08.290Z,0
2018-09-30T04:17:09.103Z,0
2018-09-30T04:18:09.814Z,0
2018-09-30T04:19:10.541Z,0
2018-09-30T04:20:11.286Z,0
2018-09-30T04:21:12.269Z,0
2018-09-30T04:22:13.238Z,0
2018-09-30T04:23:14.206Z,0
2018-09-30T04:24:14.918Z,0
2018-09-30T04:25:15.636Z,0
2018-09-30T04:26:16.647Z,0
2018-09-30T04:27:17.357Z,0
2018-09-30T04:28:18.058Z,0
2018-09-30T04:29:19.038Z,0
2018-09-30T04:30:19.835Z,0
2018-09-30T04:31:20.549Z,0
2018-09-30T04:32:21.270Z,0
2018-09-30T04:33:22.298Z,0
2018-09-30T04:34:22.975Z,0
2018-09-30T04:35:23.690Z,0
2018-09-30T04:36:24.400Z,0
2018-09-30T04:37:25.124Z,0
2018-09-30T04:38:25.850Z,0
2018-09-30T04:40:42.109Z,0
2018-09-30T04:41:42.833Z,0
2018-09-30T04:42:43.564Z,0
2018-09-30T04:43:44.277Z,0
2018-09-30T04:44:45.019Z,0
2018-09-30T04:45:45.996Z,0
2018-09-30T04:46:46.965Z,0
2018-09-30T04:47:47.700Z,0
2018-09-30T04:48:48.408Z,0
2018-09-30T04:49:49.127Z,0
2018-09-30T04:50:50.118Z,0
2018-09-30T04:51:50.820Z,0
2018-09-30T04:52:51.799Z,0
2018-09-30T04:53:52.774Z,0
2018-09-30T04:54:53.503Z,0
2018-09-30T04:55:54.236Z,0
2018-09-30T04:56:54.958Z,0
2018-09-30T04:57:55.676Z,0
2018-09-30T04:58:56.657Z,0
2018-09-30T04:59:57.368Z,0
2018-09-30T05:00:58.101Z,0
2018-09-30T05:01:58.805Z,0
2018-09-30T05:02:59.521Z,0
2018-09-30T05:04:00.241Z,0
2018-09-30T05:05:00.974Z,0
2018-09-30T05:06:01.683Z,0
2018-09-30T05:07:02.406Z,0
2018-09-30T05:08:03.174Z,0
2018-09-30T05:09:03.889Z,0
2018-09-30T05:10:04.608Z,0
2018-09-30T05:11:05.323Z,0
2018-09-30T05:12:06.067Z,0
2018-09-30T05:13:07.047Z,0
2018-09-30T05:14:08.018Z,0
2018-09-30T05:15:08.759Z,0
2018-09-30T05:16:09.581Z,5
2018-09-30T05:17:10.198Z,5
2018-09-30T05:18:10.916Z,5
2018-09-30T05:19:11.640Z,5
2018-09-30T05:20:12.345Z,5
2018-09-30T05:21:13.054Z,5
2018-09-30T05:22:13.794Z,11
2018-09-30T05:23:14.521Z,11
2018-09-30T05:24:15.271Z,11
2018-09-30T05:25:16.237Z,11
2018-09-30T05:26:16.955Z,16
2018-09-30T05:27:17.686Z,16
2018-09-30T05:28:18.428Z,16
2018-09-30T05:29:19.171Z,16
2018-09-30T05:30:19.904Z,22
2018-09-30T05:31:20.638Z,22
2018-09-30T05:32:21.348Z,22
2018-09-30T05:33:22.062Z,28
2018-09-30T05:34:22.783Z,28
2018-09-30T05:35:23.505Z,33
2018-09-30T05:36:24.241Z,33
2018-09-30T05:37:24.975Z,33
2018-09-30T05:38:25.785Z,39
2018-09-30T05:39:26.706Z,39
2018-09-30T05:40:27.430Z,45
2018-09-30T05:41:28.142Z,45
2018-09-30T05:42:28.880Z,50
2018-09-30T05:43:29.634Z,50
2018-09-30T05:44:30.393Z,50
2018-09-30T05:45:31.380Z,56
2018-09-30T05:46:32.093Z,56
2018-09-30T05:47:33.074Z,61
2018-09-30T05:48:33.790Z,61
2018-09-30T05:49:34.781Z,61
2018-09-30T05:50:35.511Z,67
2018-09-30T05:51:36.235Z,67
2018-09-30T05:52:36.961Z,73
2018-09-30T05:53:37.678Z,73
2018-09-30T05:54:38.385Z,73
2018-09-30T05:55:39.359Z,78
2018-09-30T05:56:40.076Z,78
2018-09-30T05:57:40.838Z,78
2018-09-30T05:58:41.550Z,84
2018-09-30T05:59:42.278Z,84
2018-09-30T06:00:42.988Z,84
2018-09-30T06:01:43.979Z,84
2018-09-30T06:02:44.700Z,90
2018-09-30T06:03:45.433Z,90
2018-09-30T06:04:46.151Z,90
2018-09-30T06:05:46.862Z,95
2018-09-30T06:06:47.842Z,95
2018-09-30T06:07:48.618Z,95
2018-09-30T06:08:49.376Z,101
2018-09-30T06:09:50.070Z,101
2018-09-30T06:10:51.050Z,101
2018-09-30T06:11:51.777Z,106
2018-09-30T06:12:52.518Z,106
2018-09-30T06:13:53.253Z,106
2018-09-30T06:14:54.213Z,112
2018-09-30T06:15:55.002Z,112
2018-09-30T06:16:55.647Z,112
2018-09-30T06:17:56.391Z,112
2018-09-30T06:18:57.108Z,118
2018-09-30T06:19:57.826Z,118
2018-09-30T06:20:58.535Z,118
2018-09-30T06:21:59.554Z,123
2018-09-30T06:23:00.280Z,123
2018-09-30T06:24:01.000Z,123
2018-09-30T06:25:01.718Z,123
2018-09-30T06:26:02.516Z,129
2018-09-30T06:27:03.510Z,129
2018-09-30T06:28:04.235Z,129
2018-09-30T06:29:04.957Z,129
2018-09-30T06:30:05.674Z,129
2018-09-30T06:31:06.396Z,135
2018-09-30T06:32:07.188Z,135
2018-09-30T06:33:07.879Z,135
2018-09-30T06:34:08.612Z,135
2018-09-30T06:35:09.327Z,140
2018-09-30T06:36:10.038Z,140
2018-09-30T06:37:10.800Z,140
2018-09-30T06:38:11.510Z,140
2018-09-30T06:39:12.227Z,146
2018-09-30T06:40:13.033Z,146
2018-09-30T06:41:13.956Z,146
2018-09-30T06:42:14.740Z,146
2018-09-30T06:43:15.484Z,146
2018-09-30T06:44:16.234Z,151
2018-09-30T06:45:17.018Z,151
2018-09-30T06:46:17.921Z,151
2018-09-30T06:47:18.912Z,151
2018-09-30T06:48:19.677Z,157
2018-09-30T06:49:20.643Z,163
2018-09-30T06:50:21.362Z,157
2018-09-30T06:51:22.383Z,157
2018-09-30T06:52:23.117Z,157
2018-09-30T06:53:23.844Z,163
2018-09-30T06:54:24.567Z,163
2018-09-30T06:56:40.844Z,163
2018-09-30T06:57:41.819Z,163
2018-09-30T06:58:42.540Z,168
2018-09-30T06:59:43.261Z,168
2018-09-30T07:00:43.986Z,168
2018-09-30T07:01:44.706Z,168
2018-09-30T07:02:45.433Z,168
2018-09-30T07:03:46.155Z,168
2018-09-30T07:04:46.927Z,168
2018-09-30T07:05:47.610Z,168
2018-09-30T07:06:48.320Z,168
2018-09-30T07:07:49.121Z,174
2018-09-30T07:08:49.856Z,174
2018-09-30T07:09:50.565Z,174
2018-09-30T07:10:51.389Z,174
2018-09-30T07:11:52.080Z,180
2018-09-30T07:12:52.827Z,180
2018-09-30T07:13:53.563Z,185
2018-09-30T07:14:54.320Z,180
2018-09-30T07:15:55.295Z,180
2018-09-30T07:16:56.077Z,180
2018-09-30T07:17:56.749Z,185
2018-09-30T07:18:57.508Z,185
2018-09-30T07:19:58.526Z,185
2018-09-30T07:20:59.307Z,185
2018-09-30T07:22:00.042Z,191
2018-09-30T07:23:00.757Z,191
2018-09-30T07:24:01.540Z,191
2018-09-30T07:25:02.276Z,191
2018-09-30T07:26:03.013Z,196
2018-09-30T07:27:03.735Z,196
2018-09-30T07:28:04.458Z,196
2018-09-30T07:29:05.554Z,196
2018-09-30T07:30:06.281Z,196
2018-09-30T07:31:07.015Z,202
2018-09-30T07:32:07.737Z,202
2018-09-30T07:33:08.720Z,202
2018-09-30T07:34:09.451Z,202
2018-09-30T07:35:10.455Z,202
2018-09-30T07:36:11.162Z,208
2018-09-30T07:37:11.885Z,208
2018-09-30T07:38:12.662Z,208
2018-09-30T07:39:13.398Z,208
2018-09-30T07:41:29.673Z,213
2018-09-30T07:42:30.395Z,213
2018-09-30T07:43:31.138Z,213
2018-09-30T07:44:31.904Z,213
2018-09-30T07:45:32.888Z,213
2018-09-30T07:46:33.615Z,213
2018-09-30T07:47:34.338Z,219
2018-09-30T07:48:35.054Z,219
2018-09-30T07:49:35.784Z,225
2018-09-30T07:50:36.569Z,225
2018-09-30T07:51:37.322Z,230
2018-09-30T07:52:38.102Z,230
2018-09-30T07:53:39.717Z,236
2018-09-30T07:54:40.443Z,241
2018-09-30T07:55:41.169Z,241
2018-09-30T07:56:41.909Z,247
2018-09-30T07:57:42.656Z,247
2018-09-30T07:58:43.434Z,253
2018-09-30T07:59:44.163Z,253
2018-09-30T08:00:44.901Z,258
2018-09-30T08:01:45.678Z,253
2018-09-30T08:02:46.406Z,253
2018-09-30T08:03:47.117Z,258
2018-09-30T08:04:47.849Z,264
2018-09-30T08:05:48.827Z,264
2018-09-30T08:06:49.572Z,270
2018-09-30T08:07:50.604Z,275
2018-09-30T08:08:51.339Z,286
2018-09-30T08:09:52.054Z,354
2018-09-30T08:10:52.790Z,534
2018-09-30T08:11:53.524Z,731
2018-09-30T08:12:54.253Z,832
2018-09-30T08:13:54.996Z,916
2018-09-30T08:14:55.720Z,956
2018-09-30T08:15:56.458Z,916
2018-09-30T08:16:57.200Z,939
2018-09-30T08:17:57.903Z,961
2018-09-30T08:18:58.633Z,961
2018-09-30T08:19:59.615Z,1001
2018-09-30T08:21:00.353Z,1057
2018-09-30T08:22:01.077Z,1125
2018-09-30T08:23:01.808Z,1215
2018-09-30T08:24:02.610Z,1243
2018-09-30T08:25:03.273Z,1215
2018-09-30T08:26:03.993Z,1153
2018-09-30T08:27:04.991Z,1102
2018-09-30T08:28:05.972Z,1091
2018-09-30T08:29:06.952Z,1119
2018-09-30T08:30:07.761Z,1170
2018-09-30T08:31:08.504Z,1260
2018-09-30T08:32:09.236Z,1316
2018-09-30T08:33:10.312Z,1771
2018-09-30T08:34:11.344Z,1603
2018-09-30T08:35:12.325Z,1597
2018-09-30T08:36:13.061Z,1625
2018-09-30T08:37:13.800Z,1648
2018-09-30T08:38:14.845Z,1687
2018-09-30T08:39:15.572Z,1704
2018-09-30T08:40:16.649Z,1721
2018-09-30T08:41:17.405Z,1760
2018-09-30T08:42:18.135Z,1783
2018-09-30T08:43:18.883Z,1811
2018-09-30T08:44:19.923Z,1861
2018-09-30T08:45:20.667Z,1856
2018-09-30T08:46:21.391Z,1822
2018-09-30T08:47:22.552Z,1777
2018-09-30T08:48:23.756Z,1755
2018-09-30T08:49:24.561Z,1738
2018-09-30T08:50:25.274Z,1760
2018-09-30T08:51:25.996Z,1794
2018-09-30T08:52:26.999Z,1822
2018-09-30T08:53:27.733Z,1850
2018-09-30T08:54:28.471Z,1867
2018-09-30T08:55:29.194Z,1878
2018-09-30T08:56:29.937Z,1895
2018-09-30T08:57:30.677Z,1918
2018-09-30T08:58:31.430Z,1906
2018-09-30T08:59:32.414Z,1901
2018-09-30T09:00:33.141Z,1901
2018-09-30T09:01:34.226Z,1901
2018-09-30T09:02:34.963Z,1884
2018-09-30T09:03:35.715Z,1861
2018-09-30T09:04:36.448Z,1878
2018-09-30T09:05:37.514Z,1918
2018-09-30T09:06:38.257Z,1963
2018-09-30T09:07:38.992Z,2002
2018-09-30T09:08:39.987Z,2013
2018-09-30T09:09:40.761Z,2008
2018-09-30T09:10:41.486Z,1980
2018-09-30T09:11:42.314Z,1929
2018-09-30T09:12:43.100Z,1878
2018-09-30T09:13:43.837Z,1850
2018-09-30T09:14:44.590Z,1856
2018-09-30T09:15:45.329Z,1839
2018-09-30T09:16:46.061Z,1850
2018-09-30T09:17:46.830Z,1873
2018-09-30T09:18:47.615Z,1878
2018-09-30T09:19:48.349Z,1884
2018-09-30T09:20:49.087Z,1867
2018-09-30T09:21:49.823Z,1845
2018-09-30T09:22:50.647Z,1816
2018-09-30T09:23:51.305Z,1822
2018-09-30T09:24:52.095Z,1822
2018-09-30T09:25:52.846Z,1861
2018-09-30T09:26:53.622Z,1895
2018-09-30T09:27:54.335Z,1923
2018-09-30T09:28:55.173Z,1957
2018-09-30T09:29:55.908Z,1985
2018-09-30T09:30:56.714Z,2013
2018-09-30T09:31:57.430Z,2030
2018-09-30T09:32:58.179Z,2103
2018-09-30T09:33:58.914Z,2171
2018-09-30T09:34:59.662Z,2205
2018-09-30T09:36:00.389Z,2221
2018-09-30T09:37:01.483Z,2176
2018-09-30T09:38:02.480Z,2115
2018-09-30T09:39:03.210Z,1985
2018-09-30T09:40:03.962Z,2070
2018-09-30T09:41:04.698Z,2075
2018-09-30T09:42:05.493Z,2053
2018-09-30T09:43:06.738Z,1974
2018-09-30T09:44:07.477Z,1884
2018-09-30T09:45:08.232Z,1867
2018-09-30T09:46:08.953Z,1901
2018-09-30T09:47:09.827Z,2013
2018-09-30T09:48:10.483Z,2154
2018-09-30T09:49:11.557Z,2238
2018-09-30T09:50:12.304Z,2278
2018-09-30T09:51:13.054Z,2283
2018-09-30T09:52:14.053Z,2311
2018-09-30T09:53:14.779Z,2311
2018-09-30T09:54:15.849Z,2328
2018-09-30T09:55:16.590Z,2345
2018-09-30T09:56:17.368Z,2345
2018-09-30T09:57:18.093Z,2356
2018-09-30T09:58:18.883Z,2356
2018-09-30T09:59:19.733Z,2345
2018-09-30T10:00:20.373Z,2323
2018-09-30T10:01:21.099Z,2300
2018-09-30T10:02:22.102Z,2334
2018-09-30T10:03:22.848Z,2351
2018-09-30T10:04:23.587Z,2385
2018-09-30T10:05:24.584Z,2407
2018-09-30T10:06:25.313Z,2435
2018-09-30T10:07:26.059Z,2458
2018-09-30T10:08:27.137Z,2469
2018-09-30T10:09:27.933Z,2458
2018-09-30T10:10:28.669Z,2418
2018-09-30T10:11:29.396Z,2379
2018-09-30T10:12:30.131Z,2345
2018-09-30T10:13:31.145Z,2340
2018-09-30T10:14:31.865Z,2351
2018-09-30T10:15:32.628Z,2328
2018-09-30T10:16:33.612Z,2295
2018-09-30T10:17:34.343Z,2261
2018-09-30T10:18:35.341Z,2272
2018-09-30T10:19:36.135Z,2289
2018-09-30T10:20:37.316Z,2311
2018-09-30T10:21:38.328Z,2340
2018-09-30T10:22:39.058Z,2356
2018-09-30T10:23:40.174Z,2334
2018-09-30T10:24:41.171Z,2306
2018-09-30T10:25:41.963Z,2306
2018-09-30T10:26:42.814Z,2334
2018-09-30T10:27:43.818Z,2356
2018-09-30T10:28:44.554Z,2396
2018-09-30T10:29:45.296Z,2373
2018-09-30T10:30:46.101Z,2323
2018-09-30T10:31:46.874Z,2300
2018-09-30T10:32:47.863Z,2289
2018-09-30T10:33:48.606Z,2295
2018-09-30T10:34:49.354Z,2311
2018-09-30T10:35:50.163Z,2328
2018-09-30T10:36:50.901Z,2328
2018-09-30T10:37:51.660Z,2328
2018-09-30T10:38:52.440Z,2356
2018-09-30T10:39:53.401Z,2390
2018-09-30T10:40:54.218Z,2424
2018-09-30T10:41:54.967Z,2441
2018-09-30T10:42:55.707Z,2396
2018-09-30T10:43:56.457Z,2340
2018-09-30T10:44:57.209Z,2300
2018-09-30T10:45:57.959Z,2289
2018-09-30T10:46:59.202Z,2295
2018-09-30T10:47:59.985Z,2289
2018-09-30T10:49:01.080Z,2289
2018-09-30T10:50:01.809Z,1321
2018-09-30T10:51:02.657Z,1350
2018-09-30T10:52:03.649Z,1490
2018-09-30T10:53:04.489Z,1260
2018-09-30T10:54:05.228Z,1040
2018-09-30T10:55:06.006Z,1063
2018-09-30T10:56:07.006Z,1513
2018-09-30T10:57:07.746Z,1591
2018-09-30T10:58:08.752Z,1777
2018-09-30T10:59:09.489Z,2092
2018-09-30T11:00:10.297Z,2013
2018-09-30T11:01:11.101Z,1715
2018-09-30T11:02:11.853Z,1383
2018-09-30T11:03:12.866Z,1164
2018-09-30T11:04:13.603Z,1147
2018-09-30T11:05:14.359Z,1046
2018-09-30T11:06:15.111Z,866
2018-09-30T11:07:15.875Z,1063
2018-09-30T11:08:16.655Z,1423
2018-09-30T11:09:17.672Z,967
2018-09-30T11:10:18.446Z,832
2018-09-30T11:11:19.498Z,922
2018-09-30T11:12:20.237Z,1130
2018-09-30T11:13:20.988Z,1231
2018-09-30T11:14:21.757Z,1068
2018-09-30T11:15:22.512Z,1406
2018-09-30T11:16:23.254Z,1552
2018-09-30T11:17:23.989Z,1985
2018-09-30T11:18:24.732Z,2295
2018-09-30T11:19:25.479Z,2019
2018-09-30T11:20:26.727Z,1974
2018-09-30T11:21:27.459Z,1181
2018-09-30T11:22:28.736Z,1473
2018-09-30T11:23:29.531Z,1541
2018-09-30T11:24:30.269Z,1462
2018-09-30T11:25:31.305Z,1265
2018-09-30T11:26:32.037Z,1125
2018-09-30T11:27:33.045Z,1254
2018-09-30T11:28:33.774Z,995
2018-09-30T11:29:34.526Z,855
2018-09-30T11:30:35.523Z,1608
2018-09-30T11:31:36.265Z,1743
2018-09-30T11:32:37.001Z,1411
2018-09-30T11:33:37.748Z,1383
2018-09-30T11:34:38.481Z,1535
2018-09-30T11:35:39.273Z,1456
2018-09-30T11:36:40.082Z,1777
2018-09-30T11:37:40.931Z,1372
2018-09-30T11:38:41.673Z,1057
2018-09-30T11:39:42.481Z,596
2018-09-30T11:40:43.224Z,652
2018-09-30T11:41:43.963Z,545
2018-09-30T11:42:44.721Z,585
2018-09-30T11:43:45.715Z,562
2018-09-30T11:44:46.443Z,495
2018-09-30T11:45:47.233Z,652
2018-09-30T11:46:48.377Z,483
2018-09-30T11:47:49.271Z,573
2018-09-30T11:48:50.003Z,511
2018-09-30T11:49:51.010Z,489
2018-09-30T11:50:52.073Z,579
2018-09-30T11:51:52.809Z,815
2018-09-30T11:52:53.554Z,1085
2018-09-30T11:53:54.285Z,961
2018-09-30T11:54:55.290Z,663
2018-09-30T11:55:56.313Z,500
2018-09-30T11:56:57.166Z,686
2018-09-30T11:57:58.425Z,630
2018-09-30T11:58:59.425Z,742
2018-09-30T12:00:00.208Z,607
2018-09-30T12:01:00.956Z,483
2018-09-30T12:02:01.719Z,556
2018-09-30T12:03:02.456Z,579
2018-09-30T12:04:03.588Z,579
2018-09-30T12:05:04.319Z,601
2018-09-30T12:06:05.060Z,1254
2018-09-30T12:07:05.813Z,1215
2018-09-30T12:08:06.605Z,1614
2018-09-30T12:09:07.330Z,1670
2018-09-30T12:10:08.086Z,1209
2018-09-30T12:11:08.827Z,1468
2018-09-30T12:12:09.552Z,1614
2018-09-30T12:13:10.364Z,1563
2018-09-30T12:14:11.100Z,1614
2018-09-30T12:15:12.169Z,1749
2018-09-30T12:16:12.915Z,1816
2018-09-30T12:17:13.653Z,1805
2018-09-30T12:18:14.431Z,1873
2018-09-30T12:19:15.165Z,1940
2018-09-30T12:20:15.912Z,1918
2018-09-30T12:21:16.901Z,1912
2018-09-30T12:22:17.658Z,1923
2018-09-30T12:23:18.439Z,1951
2018-09-30T12:24:19.232Z,1963
2018-09-30T12:25:19.966Z,1996
2018-09-30T12:26:20.710Z,2036
2018-09-30T12:27:21.808Z,2041
2018-09-30T12:28:22.983Z,2025
2018-09-30T12:29:23.727Z,2025
2018-09-30T12:30:24.754Z,2041
2018-09-30T12:31:25.490Z,2036
2018-09-30T12:32:26.261Z,2008
2018-09-30T12:33:27.073Z,1968
2018-09-30T12:34:27.864Z,1946
2018-09-30T12:35:28.602Z,1951
2018-09-30T12:36:29.401Z,1935
2018-09-30T12:37:30.133Z,1940
2018-09-30T12:38:31.122Z,1918
2018-09-30T12:39:31.854Z,1929
2018-09-30T12:40:32.593Z,1743
2018-09-30T12:41:33.345Z,1006
2018-09-30T12:42:34.567Z,1012
2018-09-30T12:43:35.487Z,945
2018-09-30T12:44:36.243Z,523
2018-09-30T12:45:37.241Z,680
2018-09-30T12:46:38.280Z,438
2018-09-30T12:47:39.010Z,675
2018-09-30T12:48:39.752Z,393
2018-09-30T12:49:40.490Z,354
2018-09-30T12:50:41.228Z,298
2018-09-30T12:51:41.966Z,286
2018-09-30T12:52:43.073Z,371
2018-09-30T12:53:44.182Z,320
2018-09-30T12:54:45.227Z,281
2018-09-30T12:55:46.108Z,281
2018-09-30T12:56:47.493Z,320
2018-09-30T12:57:49.153Z,399
2018-09-30T12:58:50.875Z,579
2018-09-30T12:59:51.633Z,365
2018-09-30T13:00:52.694Z,320
2018-09-30T13:01:54.083Z,326
2018-09-30T13:02:55.115Z,478
2018-09-30T13:03:55.891Z,382
2018-09-30T13:04:56.962Z,286
2018-09-30T13:05:57.755Z,264
2018-09-30T13:06:58.517Z,258
2018-09-30T13:07:59.790Z,264
2018-09-30T13:09:00.759Z,281
2018-09-30T13:10:01.494Z,315
2018-09-30T13:11:02.580Z,281
2018-09-30T13:12:03.719Z,258
2018-09-30T13:13:05.326Z,270
2018-09-30T13:14:06.633Z,343
2018-09-30T13:15:08.343Z,331
2018-09-30T13:16:09.627Z,281
2018-09-30T13:17:10.940Z,292
2018-09-30T13:18:12.003Z,309
2018-09-30T13:19:12.907Z,275
2018-09-30T13:20:15.273Z,275
2018-09-30T13:21:16.540Z,315
2018-09-30T13:22:17.266Z,292
2018-09-30T13:23:18.250Z,281
2018-09-30T13:24:18.978Z,258
2018-09-30T13:25:20.055Z,270
2018-09-30T13:26:21.106Z,264
2018-09-30T13:27:22.141Z,275
2018-09-30T13:28:22.933Z,315
2018-09-30T13:29:23.743Z,258
2018-09-30T13:30:24.470Z,281
2018-09-30T13:31:25.472Z,376
2018-09-30T13:32:26.264Z,286
2018-09-30T13:33:27.312Z,270
2018-09-30T13:34:28.005Z,298
2018-09-30T13:35:29.013Z,286
2018-09-30T13:36:30.049Z,292
2018-09-30T13:37:31.141Z,286
2018-09-30T13:38:31.936Z,264
2018-09-30T13:39:32.727Z,253
2018-09-30T13:40:33.604Z,286
2018-09-30T13:41:34.822Z,371
2018-09-30T13:42:35.976Z,343
2018-09-30T13:43:37.035Z,270
2018-09-30T13:44:38.147Z,292
2018-09-30T13:45:38.944Z,309
2018-09-30T13:46:39.684Z,303
2018-09-30T13:47:40.752Z,292
2018-09-30T13:48:42.190Z,315
2018-09-30T13:49:42.909Z,320
2018-09-30T13:50:43.665Z,326
2018-09-30T13:51:44.723Z,309
2018-09-30T13:52:45.488Z,298
2018-09-30T13:53:46.537Z,286
2018-09-30T13:54:47.281Z,292
2018-09-30T13:55:48.315Z,320
2018-09-30T13:56:49.053Z,348
2018-09-30T13:57:50.128Z,286
2018-09-30T13:58:50.963Z,286
2018-09-30T13:59:52.179Z,281
2018-09-30T14:00:53.086Z,270
2018-09-30T14:01:54.185Z,253
2018-09-30T14:02:54.979Z,264
2018-09-30T14:03:56.078Z,354
2018-09-30T14:04:57.163Z,438
2018-09-30T14:05:58.336Z,388
2018-09-30T14:06:59.404Z,382
2018-09-30T14:08:00.179Z,472
2018-09-30T14:09:00.941Z,388
2018-09-30T14:10:02.084Z,326
2018-09-30T14:11:02.962Z,365
2018-09-30T14:12:04.277Z,264
2018-09-30T14:13:05.951Z,253
2018-09-30T14:14:07.138Z,320
2018-09-30T14:15:08.137Z,354
2018-09-30T14:16:09.152Z,337
2018-09-30T14:17:10.151Z,315
2018-09-30T14:18:10.903Z,416
2018-09-30T14:19:58.477Z,298